Miller Field
KVTN : now visible

Airfield :











YOU CAN JOIN US ON...

 
LOGIN :

Register | Disclaimer

   EN    FR    IT 

 









Legend :    VFR   Marginal VFR   IFR   Intensive IFR   Very Intensive IFR
Visi :
Ceiling :
>= 8 km
>= 3000ft
5 to 8 km
1000 to 3000 ft
1500m to 5 km
500 to 1000 ft
800 to 1500m
200 to 500 ft
< 800m
< 200 ft
Symbols :   Thunderstorms  Fog  Heavy snow  Heavy precipitations  Wind > 20 kt







- Airport Elevation : 2596 ft


KVTN - Miller Field

CURRENT METAR :
  • 192214Z AUTO 36014KT 10SM SCT016 BKN025 OVC034 08/02 A3001 RMK AO2 T00830017 $

EXPIRED METARs :
  • 192152Z AUTO 34012G21KT 10SM OVC016 08/02 A3001 RMK AO2 SLP173 T00830022 $
  • 192113Z AUTO 33015G23KT 10SM OVC014 07/02 A3002 RMK AO2 T00670022 $
  • 192052Z AUTO 34015G22KT 10SM OVC015 07/02 A3001 RMK AO2 RAB31E44 SLP175 P0000 60000 T00670022 53015 $
  • 191952Z AUTO 33018G24KT 10SM BKN018 BKN026 OVC038 07/02 A3000 RMK AO2 PK WND 32028/1930 RAB30E40 SLP170 P0000 T00720017 $

TAF KVTN
Valid from the 19 at 18:00 until the 20 at 18:00 UTC


191731Z 1918/2018 33015G26KT P6SM -RA SCT015 BKN022 OVC045
FM200200 03007KT P6SM BKN022
FM200600 07005KT P6SM VCSH BKN018
FM201300 09008KT 6SM -SHRA BR OVC009
KZDV FIR / North America



MET'MAP, your aeronautical weather chart ! - Copyright ORBIFLY December 2007 - Disclaimer

ORBIFLY MET'MAP TEAM :

Programming & Development : Alexandra Zaïnal
Concept & Development : Baudouin d'Aumeries
Co-Development & Prog : Marc-Olivier Méhu
Technical & hardware support : Manuel Goepfert

Contact : metmap@orbifly.com




SOURCES & CREDITS :

   NOAA       Earth
Advisory